sensor_id;sensor_type;location;lat;lon;timestamp;temperature;humidity
19019;DHT22;9642;50.842;4.348;2022-09-27T00:00:29;11.60;99.90
19019;DHT22;9642;50.842;4.348;2022-09-27T00:02:56;11.60;99.90
19019;DHT22;9642;50.842;4.348;2022-09-27T00:05:22;11.60;99.90
19019;DHT22;9642;50.842;4.348;2022-09-27T00:07:48;11.60;99.90
19019;DHT22;9642;50.842;4.348;2022-09-27T00:10:14;11.60;99.90
19019;DHT22;9642;50.842;4.348;2022-09-27T00:12:41;11.60;99.90
19019;DHT22;9642;50.842;4.348;2022-09-27T00:15:07;11.60;99.90
19019;DHT22;9642;50.842;4.348;2022-09-27T00:17:36;11.60;99.90
19019;DHT22;9642;50.842;4.348;2022-09-27T00:20:05;11.60;99.90
19019;DHT22;9642;50.842;4.348;2022-09-27T00:22:31;11.70;99.90
19019;DHT22;9642;50.842;4.348;2022-09-27T00:24:58;11.70;99.90
19019;DHT22;9642;50.842;4.348;2022-09-27T00:27:25;11.60;99.90
19019;DHT22;9642;50.842;4.348;2022-09-27T00:29:52;11.60;99.90
19019;DHT22;9642;50.842;4.348;2022-09-27T00:32:18;11.70;99.90
19019;DHT22;9642;50.842;4.348;2022-09-27T00:34:45;11.50;99.90
19019;DHT22;9642;50.842;4.348;2022-09-27T00:37:11;11.40;99.90
19019;DHT22;9642;50.842;4.348;2022-09-27T00:39:37;11.50;99.90
19019;DHT22;9642;50.842;4.348;2022-09-27T00:42:10;11.60;99.90
19019;DHT22;9642;50.842;4.348;2022-09-27T00:50:34;11.50;99.90
19019;DHT22;9642;50.842;4.348;2022-09-27T00:53:23;11.60;99.90
19019;DHT22;9642;50.842;4.348;2022-09-27T00:55:59;11.60;99.90
19019;DHT22;9642;50.842;4.348;2022-09-27T00:58:31;11.70;99.90
19019;DHT22;9642;50.842;4.348;2022-09-27T01:01:01;11.70;99.90
19019;DHT22;9642;50.842;4.348;2022-09-27T01:03:35;11.60;99.90
19019;DHT22;9642;50.842;4.348;2022-09-27T01:06:02;11.60;99.90
19019;DHT22;9642;50.842;4.348;2022-09-27T01:08:30;11.60;99.90
19019;DHT22;9642;50.842;4.348;2022-09-27T01:13:46;11.50;99.90
19019;DHT22;9642;50.842;4.348;2022-09-27T01:17:00;11.60;99.90
19019;DHT22;9642;50.842;4.348;2022-09-27T01:22:38;11.60;99.90
19019;DHT22;9642;50.842;4.348;2022-09-27T01:28:15;11.60;99.90
19019;DHT22;9642;50.842;4.348;2022-09-27T01:30:47;11.50;99.90
19019;DHT22;9642;50.842;4.348;2022-09-27T01:33:33;11.50;99.90
19019;DHT22;9642;50.842;4.348;2022-09-27T01:44:36;11.50;99.90
19019;DHT22;9642;50.842;4.348;2022-09-27T01:47:12;11.50;99.90
19019;DHT22;9642;50.842;4.348;2022-09-27T01:49:50;11.50;99.90
19019;DHT22;9642;50.842;4.348;2022-09-27T01:52:22;11.50;99.90
19019;DHT22;9642;50.842;4.348;2022-09-27T01:54:55;11.40;99.90
19019;DHT22;9642;50.842;4.348;2022-09-27T01:57:26;11.40;99.90
19019;DHT22;9642;50.842;4.348;2022-09-27T02:00:05;11.30;99.90
19019;DHT22;9642;50.842;4.348;2022-09-27T02:02:39;11.40;99.90
19019;DHT22;9642;50.842;4.348;2022-09-27T02:05:11;11.40;99.90
19019;DHT22;9642;50.842;4.348;2022-09-27T02:08:05;11.50;99.90
19019;DHT22;9642;50.842;4.348;2022-09-27T02:10:38;11.50;99.90
19019;DHT22;9642;50.842;4.348;2022-09-27T02:13:26;11.60;99.90
19019;DHT22;9642;50.842;4.348;2022-09-27T02:24:05;11.40;99.90
19019;DHT22;9642;50.842;4.348;2022-09-27T02:26:41;11.40;99.90
19019;DHT22;9642;50.842;4.348;2022-09-27T02:29:17;11.40;99.90
19019;DHT22;9642;50.842;4.348;2022-09-27T02:31:49;11.30;99.90
19019;DHT22;9642;50.842;4.348;2022-09-27T02:34:20;11.30;99.90
19019;DHT22;9642;50.842;4.348;2022-09-27T02:36:47;11.30;99.90
19019;DHT22;9642;50.842;4.348;2022-09-27T02:39:13;11.30;99.90
19019;DHT22;9642;50.842;4.348;2022-09-27T02:41:39;11.40;99.90
19019;DHT22;9642;50.842;4.348;2022-09-27T02:44:09;11.40;99.90
19019;DHT22;9642;50.842;4.348;2022-09-27T02:57:38;11.40;99.90
19019;DHT22;9642;50.842;4.348;2022-09-27T03:00:19;11.30;99.90
19019;DHT22;9642;50.842;4.348;2022-09-27T03:02:58;11.20;99.90
19019;DHT22;9642;50.842;4.348;2022-09-27T03:05:39;11.20;99.90
19019;DHT22;9642;50.842;4.348;2022-09-27T03:08:06;11.20;99.90
19019;DHT22;9642;50.842;4.348;2022-09-27T03:10:32;11.20;99.90
19019;DHT22;9642;50.842;4.348;2022-09-27T03:12:58;11.30;99.90
19019;DHT22;9642;50.842;4.348;2022-09-27T03:15:24;11.30;99.90
19019;DHT22;9642;50.842;4.348;2022-09-27T03:17:51;11.40;99.90
19019;DHT22;9642;50.842;4.348;2022-09-27T03:20:19;11.40;99.90
19019;DHT22;9642;50.842;4.348;2022-09-27T03:22:45;11.40;99.90
19019;DHT22;9642;50.842;4.348;2022-09-27T03:25:11;11.40;99.90
19019;DHT22;9642;50.842;4.348;2022-09-27T03:27:37;11.40;99.90
19019;DHT22;9642;50.842;4.348;2022-09-27T03:30:04;11.40;99.90
19019;DHT22;9642;50.842;4.348;2022-09-27T03:32:31;11.40;99.90
19019;DHT22;9642;50.842;4.348;2022-09-27T03:35:01;11.40;99.90
19019;DHT22;9642;50.842;4.348;2022-09-27T03:37:27;11.30;99.90
19019;DHT22;9642;50.842;4.348;2022-09-27T03:39:54;11.30;99.90
19019;DHT22;9642;50.842;4.348;2022-09-27T03:42:20;11.10;99.90
19019;DHT22;9642;50.842;4.348;2022-09-27T03:44:46;11.10;99.90
19019;DHT22;9642;50.842;4.348;2022-09-27T03:47:13;11.20;99.90
19019;DHT22;9642;50.842;4.348;2022-09-27T03:49:39;11.30;99.90
19019;DHT22;9642;50.842;4.348;2022-09-27T03:52:05;11.30;99.90
19019;DHT22;9642;50.842;4.348;2022-09-27T03:54:31;11.20;99.90
19019;DHT22;9642;50.842;4.348;2022-09-27T03:56:57;11.20;99.90
19019;DHT22;9642;50.842;4.348;2022-09-27T03:59:24;11.10;99.90
19019;DHT22;9642;50.842;4.348;2022-09-27T04:01:53;11.20;99.90
19019;DHT22;9642;50.842;4.348;2022-09-27T04:04:27;11.10;99.90
19019;DHT22;9642;50.842;4.348;2022-09-27T04:06:53;11.20;99.90
19019;DHT22;9642;50.842;4.348;2022-09-27T04:09:18;11.40;99.90
19019;DHT22;9642;50.842;4.348;2022-09-27T04:11:47;11.50;99.90
19019;DHT22;9642;50.842;4.348;2022-09-27T04:14:13;11.40;99.90
19019;DHT22;9642;50.842;4.348;2022-09-27T04:16:40;11.30;99.90
19019;DHT22;9642;50.842;4.348;2022-09-27T04:19:08;11.20;99.90
19019;DHT22;9642;50.842;4.348;2022-09-27T04:21:35;11.20;99.90
19019;DHT22;9642;50.842;4.348;2022-09-27T04:24:02;11.20;99.90
19019;DHT22;9642;50.842;4.348;2022-09-27T04:26:30;11.20;99.90
19019;DHT22;9642;50.842;4.348;2022-09-27T04:28:56;11.10;99.90
19019;DHT22;9642;50.842;4.348;2022-09-27T04:31:22;11.00;99.90
19019;DHT22;9642;50.842;4.348;2022-09-27T04:33:49;11.00;99.90
19019;DHT22;9642;50.842;4.348;2022-09-27T04:36:20;11.00;99.90
19019;DHT22;9642;50.842;4.348;2022-09-27T04:38:59;11.00;99.90
19019;DHT22;9642;50.842;4.348;2022-09-27T04:41:26;11.00;99.90
19019;DHT22;9642;50.842;4.348;2022-09-27T04:43:54;10.80;99.90
19019;DHT22;9642;50.842;4.348;2022-09-27T04:46:20;10.90;99.90
19019;DHT22;9642;50.842;4.348;2022-09-27T04:48:47;10.90;99.90
19019;DHT22;9642;50.842;4.348;2022-09-27T04:51:15;10.90;99.90
19019;DHT22;9642;50.842;4.348;2022-09-27T04:53:45;10.90;99.90
19019;DHT22;9642;50.842;4.348;2022-09-27T04:56:12;11.00;99.90
19019;DHT22;9642;50.842;4.348;2022-09-27T04:58:38;11.00;99.90
19019;DHT22;9642;50.842;4.348;2022-09-27T05:01:05;11.00;99.90
19019;DHT22;9642;50.842;4.348;2022-09-27T05:03:33;11.10;99.90
19019;DHT22;9642;50.842;4.348;2022-09-27T05:05:59;11.10;99.90
19019;DHT22;9642;50.842;4.348;2022-09-27T05:08:26;11.00;99.90
19019;DHT22;9642;50.842;4.348;2022-09-27T05:10:55;11.00;99.90
19019;DHT22;9642;50.842;4.348;2022-09-27T05:13:21;11.00;99.90
19019;DHT22;9642;50.842;4.348;2022-09-27T05:15:48;11.00;99.90
19019;DHT22;9642;50.842;4.348;2022-09-27T05:18:16;11.00;99.90
19019;DHT22;9642;50.842;4.348;2022-09-27T05:20:51;10.90;99.90
19019;DHT22;9642;50.842;4.348;2022-09-27T05:23:19;10.90;99.90
19019;DHT22;9642;50.842;4.348;2022-09-27T05:25:46;10.80;99.90
19019;DHT22;9642;50.842;4.348;2022-09-27T05:28:11;10.80;99.90
19019;DHT22;9642;50.842;4.348;2022-09-27T05:30:37;10.80;99.90
19019;DHT22;9642;50.842;4.348;2022-09-27T05:33:03;10.80;99.90
19019;DHT22;9642;50.842;4.348;2022-09-27T05:35:31;10.90;99.90
19019;DHT22;9642;50.842;4.348;2022-09-27T05:37:59;10.90;99.90
19019;DHT22;9642;50.842;4.348;2022-09-27T05:40:27;10.90;99.90
19019;DHT22;9642;50.842;4.348;2022-09-27T05:42:54;10.90;99.90
19019;DHT22;9642;50.842;4.348;2022-09-27T05:45:22;10.80;99.90
19019;DHT22;9642;50.842;4.348;2022-09-27T05:47:57;10.80;99.90
19019;DHT22;9642;50.842;4.348;2022-09-27T05:50:24;10.80;99.90
19019;DHT22;9642;50.842;4.348;2022-09-27T05:52:51;10.90;99.90
19019;DHT22;9642;50.842;4.348;2022-09-27T05:55:18;10.80;99.90
19019;DHT22;9642;50.842;4.348;2022-09-27T05:58:19;10.90;99.90
19019;DHT22;9642;50.842;4.348;2022-09-27T06:00:46;10.80;99.90
19019;DHT22;9642;50.842;4.348;2022-09-27T06:03:19;10.80;99.90
19019;DHT22;9642;50.842;4.348;2022-09-27T06:05:49;10.90;99.90
19019;DHT22;9642;50.842;4.348;2022-09-27T06:08:18;10.80;99.90
19019;DHT22;9642;50.842;4.348;2022-09-27T06:10:45;10.80;99.90
19019;DHT22;9642;50.842;4.348;2022-09-27T06:13:14;10.80;99.90
19019;DHT22;9642;50.842;4.348;2022-09-27T06:15:43;10.90;99.90
19019;DHT22;9642;50.842;4.348;2022-09-27T06:18:12;11.00;99.90
19019;DHT22;9642;50.842;4.348;2022-09-27T06:20:39;10.90;99.90
19019;DHT22;9642;50.842;4.348;2022-09-27T06:23:19;10.80;99.90
19019;DHT22;9642;50.842;4.348;2022-09-27T06:25:48;10.90;99.90
19019;DHT22;9642;50.842;4.348;2022-09-27T06:28:15;10.80;99.90
19019;DHT22;9642;50.842;4.348;2022-09-27T06:30:44;10.70;99.90
19019;DHT22;9642;50.842;4.348;2022-09-27T06:33:13;10.80;99.90
19019;DHT22;9642;50.842;4.348;2022-09-27T06:35:43;10.70;99.90
19019;DHT22;9642;50.842;4.348;2022-09-27T06:38:12;10.80;99.90
19019;DHT22;9642;50.842;4.348;2022-09-27T06:40:41;10.90;99.90
19019;DHT22;9642;50.842;4.348;2022-09-27T06:43:15;11.00;99.90
19019;DHT22;9642;50.842;4.348;2022-09-27T06:45:42;11.00;99.90
19019;DHT22;9642;50.842;4.348;2022-09-27T06:48:18;11.00;99.90
19019;DHT22;9642;50.842;4.348;2022-09-27T06:50:46;11.10;99.90
19019;DHT22;9642;50.842;4.348;2022-09-27T06:53:15;11.20;99.90
19019;DHT22;9642;50.842;4.348;2022-09-27T06:55:41;11.20;99.90
19019;DHT22;9642;50.842;4.348;2022-09-27T06:58:11;11.30;99.90
19019;DHT22;9642;50.842;4.348;2022-09-27T07:00:58;11.50;99.90
19019;DHT22;9642;50.842;4.348;2022-09-27T07:03:24;11.80;99.90
19019;DHT22;9642;50.842;4.348;2022-09-27T07:06:03;11.70;99.90
19019;DHT22;9642;50.842;4.348;2022-09-27T07:08:30;11.70;99.90
19019;DHT22;9642;50.842;4.348;2022-09-27T07:11:01;11.70;99.90
19019;DHT22;9642;50.842;4.348;2022-09-27T07:13:28;11.80;99.90
19019;DHT22;9642;50.842;4.348;2022-09-27T07:15:57;11.70;99.90
19019;DHT22;9642;50.842;4.348;2022-09-27T07:18:24;11.70;99.90
19019;DHT22;9642;50.842;4.348;2022-09-27T07:20:53;11.60;99.90
19019;DHT22;9642;50.842;4.348;2022-09-27T07:23:19;11.80;99.90
19019;DHT22;9642;50.842;4.348;2022-09-27T07:25:46;11.80;99.90
19019;DHT22;9642;50.842;4.348;2022-09-27T07:28:15;11.90;99.90
19019;DHT22;9642;50.842;4.348;2022-09-27T07:30:42;12.00;99.90
19019;DHT22;9642;50.842;4.348;2022-09-27T07:33:09;11.90;99.90
19019;DHT22;9642;50.842;4.348;2022-09-27T07:35:37;11.80;99.90
19019;DHT22;9642;50.842;4.348;2022-09-27T07:38:05;11.80;99.90
19019;DHT22;9642;50.842;4.348;2022-09-27T07:40:37;11.80;99.90
19019;DHT22;9642;50.842;4.348;2022-09-27T07:43:03;11.80;99.90
19019;DHT22;9642;50.842;4.348;2022-09-27T07:45:30;11.80;99.90
19019;DHT22;9642;50.842;4.348;2022-09-27T07:47:57;11.90;99.90
19019;DHT22;9642;50.842;4.348;2022-09-27T07:50:25;11.90;99.90
19019;DHT22;9642;50.842;4.348;2022-09-27T07:52:53;11.80;99.90
19019;DHT22;9642;50.842;4.348;2022-09-27T07:55:19;11.80;99.90
19019;DHT22;9642;50.842;4.348;2022-09-27T07:57:46;11.90;99.90
19019;DHT22;9642;50.842;4.348;2022-09-27T08:00:15;11.80;99.90
19019;DHT22;9642;50.842;4.348;2022-09-27T08:02:42;11.80;99.90
19019;DHT22;9642;50.842;4.348;2022-09-27T08:05:10;11.70;99.90
19019;DHT22;9642;50.842;4.348;2022-09-27T08:07:36;11.90;99.90
19019;DHT22;9642;50.842;4.348;2022-09-27T08:10:06;12.10;99.90
19019;DHT22;9642;50.842;4.348;2022-09-27T08:12:35;12.20;99.90
19019;DHT22;9642;50.842;4.348;2022-09-27T08:15:03;12.20;99.90
19019;DHT22;9642;50.842;4.348;2022-09-27T08:17:32;12.30;99.90
19019;DHT22;9642;50.842;4.348;2022-09-27T08:19:59;12.30;99.90
19019;DHT22;9642;50.842;4.348;2022-09-27T08:22:29;12.20;99.90
19019;DHT22;9642;50.842;4.348;2022-09-27T08:24:55;12.40;99.90
19019;DHT22;9642;50.842;4.348;2022-09-27T08:27:21;12.40;99.90
19019;DHT22;9642;50.842;4.348;2022-09-27T08:29:47;12.40;99.90
19019;DHT22;9642;50.842;4.348;2022-09-27T08:32:15;12.30;99.90
19019;DHT22;9642;50.842;4.348;2022-09-27T08:34:42;12.30;99.90
19019;DHT22;9642;50.842;4.348;2022-09-27T08:37:08;12.20;99.90
19019;DHT22;9642;50.842;4.348;2022-09-27T08:39:34;12.30;99.90
19019;DHT22;9642;50.842;4.348;2022-09-27T08:42:16;12.10;99.90
19019;DHT22;9642;50.842;4.348;2022-09-27T08:45:28;12.10;99.90
19019;DHT22;9642;50.842;4.348;2022-09-27T08:47:58;12.10;99.90
19019;DHT22;9642;50.842;4.348;2022-09-27T08:50:31;12.00;99.90
19019;DHT22;9642;50.842;4.348;2022-09-27T08:53:13;12.00;99.90
19019;DHT22;9642;50.842;4.348;2022-09-27T08:55:48;11.90;99.90
19019;DHT22;9642;50.842;4.348;2022-09-27T08:58:31;11.80;99.90
19019;DHT22;9642;50.842;4.348;2022-09-27T09:01:01;11.80;99.90
19019;DHT22;9642;50.842;4.348;2022-09-27T09:03:35;11.90;99.90
19019;DHT22;9642;50.842;4.348;2022-09-27T09:06:16;12.00;99.90
19019;DHT22;9642;50.842;4.348;2022-09-27T09:12:03;12.10;99.90
19019;DHT22;9642;50.842;4.348;2022-09-27T09:15:00;12.00;99.90
19019;DHT22;9642;50.842;4.348;2022-09-27T09:20:28;11.70;99.90
19019;DHT22;9642;50.842;4.348;2022-09-27T09:25:55;11.60;99.90
19019;DHT22;9642;50.842;4.348;2022-09-27T09:33:48;11.70;99.90
19019;DHT22;9642;50.842;4.348;2022-09-27T09:36:23;11.80;99.90
19019;DHT22;9642;50.842;4.348;2022-09-27T09:38:54;12.00;99.90
19019;DHT22;9642;50.842;4.348;2022-09-27T09:41:27;12.20;99.90
19019;DHT22;9642;50.842;4.348;2022-09-27T09:44:03;12.30;99.90
19019;DHT22;9642;50.842;4.348;2022-09-27T09:46:42;12.40;99.90
19019;DHT22;9642;50.842;4.348;2022-09-27T09:49:26;12.50;99.90
19019;DHT22;9642;50.842;4.348;2022-09-27T09:51:58;12.40;99.90
19019;DHT22;9642;50.842;4.348;2022-09-27T09:54:39;12.30;99.90
19019;DHT22;9642;50.842;4.348;2022-09-27T09:59:57;12.20;99.90
19019;DHT22;9642;50.842;4.348;2022-09-27T10:02:37;12.30;99.90
19019;DHT22;9642;50.842;4.348;2022-09-27T10:05:14;12.70;99.90
19019;DHT22;9642;50.842;4.348;2022-09-27T10:07:40;13.00;99.90
19019;DHT22;9642;50.842;4.348;2022-09-27T10:10:12;13.60;99.90
19019;DHT22;9642;50.842;4.348;2022-09-27T10:12:42;14.20;99.90
19019;DHT22;9642;50.842;4.348;2022-09-27T10:15:16;14.40;99.90
19019;DHT22;9642;50.842;4.348;2022-09-27T10:17:47;14.50;99.90
19019;DHT22;9642;50.842;4.348;2022-09-27T10:20:32;14.80;99.90
19019;DHT22;9642;50.842;4.348;2022-09-27T10:23:21;14.80;99.90
19019;DHT22;9642;50.842;4.348;2022-09-27T10:26:03;14.70;99.90
19019;DHT22;9642;50.842;4.348;2022-09-27T10:28:43;14.50;99.90
19019;DHT22;9642;50.842;4.348;2022-09-27T10:31:15;14.30;99.90
19019;DHT22;9642;50.842;4.348;2022-09-27T10:34:17;14.30;99.90
19019;DHT22;9642;50.842;4.348;2022-09-27T10:36:45;14.30;99.90
19019;DHT22;9642;50.842;4.348;2022-09-27T10:39:27;14.20;99.90
19019;DHT22;9642;50.842;4.348;2022-09-27T10:41:54;14.30;99.90
19019;DHT22;9642;50.842;4.348;2022-09-27T10:44:26;14.50;99.90
19019;DHT22;9642;50.842;4.348;2022-09-27T10:46:59;14.60;99.90
19019;DHT22;9642;50.842;4.348;2022-09-27T10:49:31;14.60;99.90
19019;DHT22;9642;50.842;4.348;2022-09-27T10:52:01;14.90;99.90
19019;DHT22;9642;50.842;4.348;2022-09-27T10:54:31;15.30;99.90
19019;DHT22;9642;50.842;4.348;2022-09-27T10:57:14;15.80;99.90
19019;DHT22;9642;50.842;4.348;2022-09-27T10:59:48;16.50;98.80
19019;DHT22;9642;50.842;4.348;2022-09-27T11:02:26;18.10;96.20
19019;DHT22;9642;50.842;4.348;2022-09-27T11:07:52;19.40;92.50
19019;DHT22;9642;50.842;4.348;2022-09-27T11:10:31;20.10;91.10
19019;DHT22;9642;50.842;4.348;2022-09-27T11:13:20;19.50;89.80
19019;DHT22;9642;50.842;4.348;2022-09-27T11:24:26;15.30;96.00
19019;DHT22;9642;50.842;4.348;2022-09-27T11:29:35;14.60;98.50
19019;DHT22;9642;50.842;4.348;2022-09-27T11:41:10;15.00;97.00
19019;DHT22;9642;50.842;4.348;2022-09-27T11:46:31;15.30;96.20
19019;DHT22;9642;50.842;4.348;2022-09-27T11:55:03;16.60;93.60
19019;DHT22;9642;50.842;4.348;2022-09-27T11:57:38;16.20;94.50
19019;DHT22;9642;50.842;4.348;2022-09-27T12:00:11;15.90;95.20
19019;DHT22;9642;50.842;4.348;2022-09-27T12:03:11;15.40;95.40
19019;DHT22;9642;50.842;4.348;2022-09-27T12:11:00;14.70;97.40
19019;DHT22;9642;50.842;4.348;2022-09-27T12:13:44;14.70;97.70
19019;DHT22;9642;50.842;4.348;2022-09-27T12:16:15;15.10;97.10
19019;DHT22;9642;50.842;4.348;2022-09-27T12:18:42;16.10;95.20
19019;DHT22;9642;50.842;4.348;2022-09-27T12:21:13;16.90;93.90
19019;DHT22;9642;50.842;4.348;2022-09-27T12:23:53;17.70;91.70
19019;DHT22;9642;50.842;4.348;2022-09-27T12:26:35;18.70;90.90
19019;DHT22;9642;50.842;4.348;2022-09-27T12:32:15;18.90;88.30
19019;DHT22;9642;50.842;4.348;2022-09-27T12:35:00;18.90;88.70
19019;DHT22;9642;50.842;4.348;2022-09-27T12:37:39;19.10;88.70
19019;DHT22;9642;50.842;4.348;2022-09-27T12:40:30;19.10;87.80
19019;DHT22;9642;50.842;4.348;2022-09-27T12:43:08;18.60;89.20
19019;DHT22;9642;50.842;4.348;2022-09-27T12:46:02;18.20;90.80
19019;DHT22;9642;50.842;4.348;2022-09-27T12:48:55;18.00;90.80
19019;DHT22;9642;50.842;4.348;2022-09-27T12:51:23;17.50;91.20
19019;DHT22;9642;50.842;4.348;2022-09-27T12:57:05;16.10;94.70
19019;DHT22;9642;50.842;4.348;2022-09-27T13:00:00;15.50;97.40
19019;DHT22;9642;50.842;4.348;2022-09-27T13:13:04;15.10;98.80
19019;DHT22;9642;50.842;4.348;2022-09-27T13:15:36;15.30;97.80
19019;DHT22;9642;50.842;4.348;2022-09-27T13:18:27;15.10;97.40
19019;DHT22;9642;50.842;4.348;2022-09-27T13:20:52;15.20;97.40
19019;DHT22;9642;50.842;4.348;2022-09-27T13:26:02;16.00;96.80
19019;DHT22;9642;50.842;4.348;2022-09-27T13:46:50;15.30;98.10
19019;DHT22;9642;50.842;4.348;2022-09-27T13:49:25;15.20;98.40
19019;DHT22;9642;50.842;4.348;2022-09-27T13:52:00;15.20;98.50
19019;DHT22;9642;50.842;4.348;2022-09-27T13:54:49;15.30;98.20
19019;DHT22;9642;50.842;4.348;2022-09-27T14:00:05;15.50;97.40
19019;DHT22;9642;50.842;4.348;2022-09-27T14:03:00;15.90;96.90
19019;DHT22;9642;50.842;4.348;2022-09-27T14:05:39;15.90;96.70
19019;DHT22;9642;50.842;4.348;2022-09-27T14:08:24;15.90;96.10
19019;DHT22;9642;50.842;4.348;2022-09-27T14:10:52;15.90;96.60
19019;DHT22;9642;50.842;4.348;2022-09-27T14:13:19;15.80;96.70
19019;DHT22;9642;50.842;4.348;2022-09-27T14:15:49;15.70;96.90
19019;DHT22;9642;50.842;4.348;2022-09-27T14:18:17;15.70;96.60
19019;DHT22;9642;50.842;4.348;2022-09-27T14:20:45;15.50;96.80
19019;DHT22;9642;50.842;4.348;2022-09-27T14:23:24;15.50;97.70
19019;DHT22;9642;50.842;4.348;2022-09-27T14:25:52;15.80;97.40
19019;DHT22;9642;50.842;4.348;2022-09-27T14:28:30;16.10;96.50
19019;DHT22;9642;50.842;4.348;2022-09-27T14:31:17;16.20;96.50
19019;DHT22;9642;50.842;4.348;2022-09-27T14:33:46;16.00;95.80
19019;DHT22;9642;50.842;4.348;2022-09-27T14:36:25;15.70;96.10
19019;DHT22;9642;50.842;4.348;2022-09-27T14:39:18;15.60;96.40
19019;DHT22;9642;50.842;4.348;2022-09-27T14:41:46;15.50;96.90
19019;DHT22;9642;50.842;4.348;2022-09-27T14:44:18;15.30;97.10
19019;DHT22;9642;50.842;4.348;2022-09-27T14:46:45;15.40;96.80
19019;DHT22;9642;50.842;4.348;2022-09-27T14:51:50;15.40;99.20
19019;DHT22;9642;50.842;4.348;2022-09-27T14:54:27;15.00;99.90
19019;DHT22;9642;50.842;4.348;2022-09-27T14:56:55;14.80;99.90
19019;DHT22;9642;50.842;4.348;2022-09-27T14:59:26;14.40;99.90
19019;DHT22;9642;50.842;4.348;2022-09-27T15:01:58;14.30;99.90
19019;DHT22;9642;50.842;4.348;2022-09-27T15:04:30;14.00;99.90
19019;DHT22;9642;50.842;4.348;2022-09-27T15:06:57;14.00;99.90
19019;DHT22;9642;50.842;4.348;2022-09-27T15:09:25;14.00;99.90
19019;DHT22;9642;50.842;4.348;2022-09-27T15:11:57;13.90;99.90
19019;DHT22;9642;50.842;4.348;2022-09-27T15:14:26;13.90;99.90
19019;DHT22;9642;50.842;4.348;2022-09-27T15:16:54;13.90;99.90
19019;DHT22;9642;50.842;4.348;2022-09-27T15:19:24;13.90;99.90
19019;DHT22;9642;50.842;4.348;2022-09-27T15:21:52;14.00;99.90
19019;DHT22;9642;50.842;4.348;2022-09-27T15:27:01;14.00;99.90
19019;DHT22;9642;50.842;4.348;2022-09-27T15:29:27;14.30;99.90
19019;DHT22;9642;50.842;4.348;2022-09-27T15:32:07;14.50;99.90
19019;DHT22;9642;50.842;4.348;2022-09-27T15:34:33;14.80;99.90
19019;DHT22;9642;50.842;4.348;2022-09-27T15:37:01;14.80;99.90
19019;DHT22;9642;50.842;4.348;2022-09-27T15:39:35;14.70;99.90
19019;DHT22;9642;50.842;4.348;2022-09-27T15:42:12;14.30;99.90
19019;DHT22;9642;50.842;4.348;2022-09-27T15:44:47;14.20;99.90
19019;DHT22;9642;50.842;4.348;2022-09-27T15:52:45;14.20;99.90
19019;DHT22;9642;50.842;4.348;2022-09-27T15:55:19;14.30;99.90
19019;DHT22;9642;50.842;4.348;2022-09-27T15:58:13;14.40;99.90
19019;DHT22;9642;50.842;4.348;2022-09-27T16:01:04;14.30;99.90
19019;DHT22;9642;50.842;4.348;2022-09-27T16:03:32;14.40;99.90
19019;DHT22;9642;50.842;4.348;2022-09-27T16:06:05;14.50;99.90
19019;DHT22;9642;50.842;4.348;2022-09-27T16:08:31;14.50;99.90
19019;DHT22;9642;50.842;4.348;2022-09-27T16:10:57;14.50;99.90
19019;DHT22;9642;50.842;4.348;2022-09-27T16:13:24;14.50;99.90
19019;DHT22;9642;50.842;4.348;2022-09-27T16:15:50;14.60;99.90
19019;DHT22;9642;50.842;4.348;2022-09-27T16:18:17;14.60;99.90
19019;DHT22;9642;50.842;4.348;2022-09-27T16:20:43;14.50;99.90
19019;DHT22;9642;50.842;4.348;2022-09-27T16:23:09;14.50;99.90
19019;DHT22;9642;50.842;4.348;2022-09-27T16:25:35;14.40;99.90
19019;DHT22;9642;50.842;4.348;2022-09-27T16:28:02;14.30;99.90
19019;DHT22;9642;50.842;4.348;2022-09-27T16:30:29;14.20;99.90
19019;DHT22;9642;50.842;4.348;2022-09-27T16:32:55;14.30;99.90
19019;DHT22;9642;50.842;4.348;2022-09-27T16:35:22;14.50;99.90
19019;DHT22;9642;50.842;4.348;2022-09-27T16:37:49;14.40;99.90
19019;DHT22;9642;50.842;4.348;2022-09-27T16:40:17;14.40;99.90
19019;DHT22;9642;50.842;4.348;2022-09-27T16:42:46;14.30;99.90
19019;DHT22;9642;50.842;4.348;2022-09-27T16:45:12;14.40;99.90
19019;DHT22;9642;50.842;4.348;2022-09-27T16:47:40;14.30;99.90
19019;DHT22;9642;50.842;4.348;2022-09-27T16:50:09;14.20;99.90
19019;DHT22;9642;50.842;4.348;2022-09-27T16:52:55;14.30;99.90
19019;DHT22;9642;50.842;4.348;2022-09-27T16:55:23;14.10;99.90
19019;DHT22;9642;50.842;4.348;2022-09-27T16:57:52;14.00;99.90
19019;DHT22;9642;50.842;4.348;2022-09-27T17:00:20;14.00;99.90
19019;DHT22;9642;50.842;4.348;2022-09-27T17:02:46;14.10;99.90
19019;DHT22;9642;50.842;4.348;2022-09-27T17:05:13;14.00;99.90
19019;DHT22;9642;50.842;4.348;2022-09-27T17:07:39;14.20;99.90
19019;DHT22;9642;50.842;4.348;2022-09-27T17:10:06;14.20;99.90
19019;DHT22;9642;50.842;4.348;2022-09-27T17:12:36;14.30;99.90
19019;DHT22;9642;50.842;4.348;2022-09-27T17:15:02;14.30;99.90
19019;DHT22;9642;50.842;4.348;2022-09-27T17:17:30;14.20;99.90
19019;DHT22;9642;50.842;4.348;2022-09-27T17:19:56;14.10;99.90
19019;DHT22;9642;50.842;4.348;2022-09-27T17:22:22;14.10;99.90
19019;DHT22;9642;50.842;4.348;2022-09-27T17:24:48;14.20;99.90
19019;DHT22;9642;50.842;4.348;2022-09-27T17:27:14;14.10;99.90
19019;DHT22;9642;50.842;4.348;2022-09-27T17:29:40;14.10;99.90
19019;DHT22;9642;50.842;4.348;2022-09-27T17:32:06;14.10;99.90
19019;DHT22;9642;50.842;4.348;2022-09-27T17:34:34;14.10;99.90
19019;DHT22;9642;50.842;4.348;2022-09-27T17:37:00;14.10;99.90
19019;DHT22;9642;50.842;4.348;2022-09-27T17:39:27;14.10;99.90
19019;DHT22;9642;50.842;4.348;2022-09-27T17:41:56;14.10;99.90
19019;DHT22;9642;50.842;4.348;2022-09-27T17:44:24;14.00;99.90
19019;DHT22;9642;50.842;4.348;2022-09-27T17:46:51;14.10;99.90
19019;DHT22;9642;50.842;4.348;2022-09-27T17:49:37;14.10;99.90
19019;DHT22;9642;50.842;4.348;2022-09-27T17:52:22;13.90;99.90
19019;DHT22;9642;50.842;4.348;2022-09-27T17:54:49;13.80;99.90
19019;DHT22;9642;50.842;4.348;2022-09-27T17:57:20;13.70;99.90
19019;DHT22;9642;50.842;4.348;2022-09-27T17:59:48;13.70;99.90
19019;DHT22;9642;50.842;4.348;2022-09-27T18:02:15;13.60;99.90
19019;DHT22;9642;50.842;4.348;2022-09-27T18:04:41;13.50;99.90
19019;DHT22;9642;50.842;4.348;2022-09-27T18:07:07;13.50;99.90
19019;DHT22;9642;50.842;4.348;2022-09-27T18:09:37;13.50;99.90
19019;DHT22;9642;50.842;4.348;2022-09-27T18:12:04;13.30;99.90
19019;DHT22;9642;50.842;4.348;2022-09-27T18:14:33;13.20;99.90
19019;DHT22;9642;50.842;4.348;2022-09-27T18:16:59;13.10;99.90
19019;DHT22;9642;50.842;4.348;2022-09-27T18:19:38;12.80;99.90
19019;DHT22;9642;50.842;4.348;2022-09-27T18:22:42;12.70;99.90
19019;DHT22;9642;50.842;4.348;2022-09-27T18:25:08;12.70;99.90
19019;DHT22;9642;50.842;4.348;2022-09-27T18:27:36;12.70;99.90
19019;DHT22;9642;50.842;4.348;2022-09-27T18:30:05;12.50;99.90
19019;DHT22;9642;50.842;4.348;2022-09-27T18:32:32;12.50;99.90
19019;DHT22;9642;50.842;4.348;2022-09-27T18:34:57;12.50;99.90
19019;DHT22;9642;50.842;4.348;2022-09-27T18:37:25;12.50;99.90
19019;DHT22;9642;50.842;4.348;2022-09-27T18:39:51;12.50;99.90